Terminal Aerodrome Forecast
Issued by NWS Northern Indiana

Home | Current Version | Previous Version | Graphics & Text | Print | Product List | Glossary On
Versions: 1 2 3 4 5 6 7 8 9 10 11 12 13 14
000
FTUS43 KIWX 301500 AAA
TAFFWA
TAF AMD
KFWA 301519Z 3015/3112 25008KT P6SM VCSH BKN035
      TEMPO 3016/3018 4SM TSRA BR BKN025CB
     FM302300 05010KT 3SM TSRA BR OVC025CB
     FM310300 05015KT 4SM -RA BR OVC015=

USA.gov is the U.S. government's official web portal to all federal, state and local government web resources and services.